createdAt,value
2019-04-30T00:01:40.296Z,93.37
2019-04-30T00:10:03.055Z,102.03
2019-04-30T00:12:38.025Z,90.07
2019-04-30T00:15:06.263Z,91.73
2019-04-30T00:17:36.101Z,99.80
2019-04-30T00:20:07.091Z,98.07
2019-04-30T00:22:39.298Z,98.20
2019-04-30T00:25:08.508Z,92.63
2019-04-30T00:27:38.524Z,93.27
2019-04-30T00:30:09.257Z,102.17
2019-04-30T00:32:43.798Z,94.23
2019-04-30T00:35:11.826Z,103.37
2019-04-30T00:37:42.352Z,95.23
2019-04-30T00:40:15.289Z,98.37
2019-04-30T00:42:45.790Z,96.50
2019-04-30T00:45:15.947Z,101.77
2019-04-30T00:47:47.893Z,106.10
2019-04-30T00:50:17.396Z,101.53
2019-04-30T00:52:47.282Z,107.90
2019-04-30T00:55:17.027Z,102.30
2019-04-30T00:57:47.526Z,104.40
2019-04-30T01:00:25.091Z,110.00
2019-04-30T01:03:09.958Z,106.97
2019-04-30T01:05:43.876Z,104.73
2019-04-30T01:08:11.564Z,96.83
2019-04-30T01:10:41.277Z,110.07
2019-04-30T01:13:12.120Z,102.73
2019-04-30T01:15:43.947Z,95.17
2019-04-30T01:18:13.683Z,96.97
2019-04-30T01:20:43.519Z,93.90
2019-04-30T01:23:16.230Z,97.07
2019-04-30T01:25:49.970Z,99.27
2019-04-30T01:28:22.882Z,96.43
2019-04-30T01:30:53.926Z,100.90
2019-04-30T01:33:21.351Z,93.83
2019-04-30T01:35:51.211Z,107.70
2019-04-30T01:38:21.094Z,96.33
2019-04-30T01:40:51.252Z,95.63
2019-04-30T01:43:30.485Z,98.50
2019-04-30T01:45:52.668Z,89.93
2019-04-30T01:48:22.533Z,90.53
2019-04-30T01:50:52.390Z,95.03
2019-04-30T01:53:22.194Z,107.27
2019-04-30T01:56:09.734Z,102.67
2019-04-30T01:58:46.758Z,89.47
2019-04-30T02:01:21.004Z,106.30
2019-04-30T02:03:50.851Z,94.60
2019-04-30T02:06:20.727Z,102.60
2019-04-30T02:08:50.569Z,106.57
2019-04-30T02:11:20.462Z,104.30
2019-04-30T02:13:50.324Z,103.83
2019-04-30T02:16:21.159Z,101.43
2019-04-30T02:18:51.279Z,118.10
2019-04-30T02:21:21.044Z,94.90
2019-04-30T02:23:50.782Z,101.57
2019-04-30T02:26:20.621Z,92.17
2019-04-30T02:28:50.405Z,97.00
2019-04-30T02:31:22.897Z,92.97
2019-04-30T02:33:53.597Z,99.17
2019-04-30T02:36:40.026Z,94.60
2019-04-30T02:39:11.158Z,95.00
2019-04-30T02:41:41.417Z,96.23
2019-04-30T02:44:12.104Z,89.73
2019-04-30T02:46:43.650Z,87.07
2019-04-30T02:49:15.115Z,91.77
2019-04-30T02:51:45.364Z,82.33
2019-04-30T02:54:20.338Z,79.83
2019-04-30T02:56:51.270Z,84.77
2019-04-30T02:59:21.000Z,85.37
2019-04-30T03:01:50.917Z,82.77
2019-04-30T03:04:20.682Z,90.53
2019-04-30T03:06:50.628Z,85.67
2019-04-30T03:09:20.543Z,93.50
2019-04-30T03:11:50.463Z,84.37
2019-04-30T03:14:20.483Z,85.27
2019-04-30T03:17:00.157Z,88.00
2019-04-30T03:19:50.037Z,83.27
2019-04-30T03:22:20.472Z,83.07
2019-04-30T03:24:50.361Z,80.90
2019-04-30T03:27:21.953Z,81.33
2019-04-30T03:29:51.783Z,89.90
2019-04-30T03:32:22.858Z,79.00
2019-04-30T03:34:53.038Z,79.97
2019-04-30T03:37:22.771Z,79.17
2019-04-30T03:39:52.590Z,84.47
2019-04-30T03:42:22.394Z,78.07
2019-04-30T03:44:52.115Z,74.67
2019-04-30T03:47:21.817Z,79.37
2019-04-30T03:49:51.615Z,82.67
2019-04-30T03:52:21.325Z,77.47
2019-04-30T03:54:51.111Z,71.20
2019-04-30T03:57:20.823Z,80.03
2019-04-30T03:59:50.733Z,81.17
2019-04-30T04:02:24.985Z,74.50
2019-04-30T04:05:02.407Z,76.23
2019-04-30T04:07:33.798Z,79.77
2019-04-30T04:10:21.986Z,76.13
2019-04-30T04:12:51.778Z,81.60
2019-04-30T04:15:21.489Z,82.73
2019-04-30T04:17:51.361Z,76.67
2019-04-30T04:20:21.127Z,72.70
2019-04-30T04:22:50.929Z,71.17
2019-04-30T04:25:20.722Z,70.73
2019-04-30T04:27:51.085Z,69.93
2019-04-30T04:30:22.187Z,74.10
2019-04-30T04:32:51.896Z,73.53
2019-04-30T04:35:21.833Z,65.57
2019-04-30T04:37:51.619Z,72.80
2019-04-30T04:40:21.502Z,74.00
2019-04-30T04:42:51.311Z,65.60
2019-04-30T04:45:21.079Z,77.23
2019-04-30T04:47:50.877Z,77.37
2019-04-30T04:50:20.795Z,77.93
2019-04-30T04:52:50.495Z,72.60
2019-04-30T04:55:22.295Z,72.20
2019-04-30T04:57:51.677Z,69.40
2019-04-30T05:00:21.554Z,69.37
2019-04-30T05:02:59.333Z,70.73
2019-04-30T05:05:29.915Z,65.67
2019-04-30T05:07:59.700Z,73.13
2019-04-30T05:10:29.547Z,75.23
2019-04-30T05:12:59.377Z,68.03
2019-04-30T05:15:29.492Z,68.33
2019-04-30T05:17:59.407Z,74.50
2019-04-30T05:20:29.343Z,68.60
2019-04-30T05:22:59.187Z,66.40
2019-04-30T05:25:29.593Z,68.10
2019-04-30T05:27:59.415Z,66.13
2019-04-30T05:30:29.615Z,72.27
2019-04-30T05:32:59.598Z,71.73
2019-04-30T05:35:31.037Z,69.33
2019-04-30T05:38:00.875Z,68.07
2019-04-30T05:40:30.723Z,65.80
2019-04-30T05:43:00.495Z,71.00
2019-04-30T05:45:30.241Z,71.37
2019-04-30T05:48:00.143Z,67.47
2019-04-30T05:50:29.927Z,67.67
2019-04-30T05:52:59.777Z,58.90
2019-04-30T05:55:29.578Z,55.87
2019-04-30T05:58:01.536Z,64.03
2019-04-30T06:00:30.996Z,68.23
2019-04-30T06:03:00.875Z,63.93
2019-04-30T06:05:30.651Z,63.90
2019-04-30T06:08:00.531Z,64.93
2019-04-30T06:10:44.268Z,60.43
2019-04-30T06:13:15.793Z,58.03
2019-04-30T06:15:59.440Z,62.10
2019-04-30T06:18:29.208Z,57.53
2019-04-30T06:20:59.515Z,60.40
2019-04-30T06:23:29.537Z,57.00
2019-04-30T06:26:09.037Z,56.07
2019-04-30T06:28:32.039Z,56.83
2019-04-30T06:31:01.990Z,53.77
2019-04-30T06:33:31.812Z,52.57
2019-04-30T06:36:02.350Z,54.93
2019-04-30T06:38:32.193Z,57.53
2019-04-30T06:41:02.007Z,58.27
2019-04-30T06:43:32.154Z,54.37
2019-04-30T06:46:02.112Z,52.93
2019-04-30T06:48:34.138Z,50.17
2019-04-30T06:51:03.951Z,55.93
2019-04-30T06:53:33.671Z,56.10
2019-04-30T06:56:03.517Z,53.07
2019-04-30T06:58:33.398Z,54.17
2019-04-30T07:01:03.107Z,50.33
2019-04-30T07:03:32.926Z,48.73
2019-04-30T07:06:04.118Z,49.37
2019-04-30T07:08:51.969Z,49.90
2019-04-30T07:11:20.640Z,48.67
2019-04-30T07:13:52.352Z,49.00
2019-04-30T07:16:22.319Z,49.50
2019-04-30T07:18:52.175Z,48.47
2019-04-30T07:21:22.235Z,48.30
2019-04-30T07:23:52.342Z,43.77
2019-04-30T07:26:24.525Z,44.57
2019-04-30T07:28:55.311Z,46.20
2019-04-30T07:31:25.430Z,48.93
2019-04-30T07:33:55.209Z,47.43
2019-04-30T07:36:42.442Z,43.97
2019-04-30T07:38:57.024Z,45.13
2019-04-30T07:41:30.861Z,48.40
2019-04-30T07:43:59.490Z,46.83
2019-04-30T07:46:29.991Z,44.73
2019-04-30T07:49:00.205Z,45.33
2019-04-30T07:51:32.194Z,44.13
2019-04-30T07:54:01.642Z,41.77
2019-04-30T07:56:37.211Z,41.40
2019-04-30T07:59:03.110Z,45.60
2019-04-30T08:01:32.959Z,43.57
2019-04-30T08:04:04.395Z,52.47
2019-04-30T08:06:34.364Z,52.83
2019-04-30T08:09:10.132Z,49.70
2019-04-30T08:11:43.307Z,49.43
2019-04-30T08:14:11.624Z,49.87
2019-04-30T08:16:41.450Z,45.50
2019-04-30T08:19:12.006Z,45.97
2019-04-30T08:21:41.922Z,45.20
2019-04-30T08:24:11.855Z,44.37
2019-04-30T08:26:41.658Z,51.17
2019-04-30T08:29:11.538Z,48.47
2019-04-30T08:31:41.249Z,48.23
2019-04-30T08:34:11.169Z,51.40
2019-04-30T08:36:44.661Z,59.67
2019-04-30T08:39:24.787Z,57.10
2019-04-30T08:41:54.688Z,56.57
2019-04-30T08:44:24.425Z,61.67
2019-04-30T08:46:54.210Z,65.03
2019-04-30T08:49:24.430Z,65.20
2019-04-30T08:51:54.320Z,65.60
2019-04-30T08:54:24.075Z,65.30
2019-04-30T08:56:53.830Z,67.30
2019-04-30T08:59:24.713Z,65.80
2019-04-30T09:01:54.594Z,65.17
2019-04-30T09:04:25.963Z,65.60
2019-04-30T09:06:56.113Z,65.30
2019-04-30T09:09:25.969Z,53.87
2019-04-30T09:11:56.120Z,58.20
2019-04-30T09:14:25.991Z,70.67
2019-04-30T09:16:55.867Z,72.23
2019-04-30T09:19:25.719Z,72.30
2019-04-30T09:21:55.635Z,63.40
2019-04-30T09:24:25.622Z,60.20
2019-04-30T09:26:55.404Z,59.77
2019-04-30T09:29:25.200Z,60.07
2019-04-30T09:31:55.051Z,59.00
2019-04-30T09:34:24.862Z,56.17
2019-04-30T09:36:54.662Z,56.50
2019-04-30T09:39:24.537Z,53.63
2019-04-30T09:41:54.274Z,54.67
2019-04-30T09:44:24.173Z,57.23
2019-04-30T09:46:54.109Z,53.77
2019-04-30T09:49:23.930Z,47.90
2019-04-30T09:51:53.761Z,49.73
2019-04-30T09:54:24.130Z,50.30
2019-04-30T09:56:54.170Z,45.40
2019-04-30T09:59:24.228Z,42.27
2019-04-30T10:01:53.987Z,44.23
2019-04-30T10:04:24.015Z,45.80
2019-04-30T10:06:54.187Z,44.63
2019-04-30T10:09:24.055Z,41.57
2019-04-30T10:11:55.510Z,38.20
2019-04-30T10:14:25.283Z,45.93
2019-04-30T10:16:56.743Z,38.60
2019-04-30T10:19:26.988Z,35.23
2019-04-30T10:21:58.874Z,38.57
2019-04-30T10:24:31.283Z,36.23
2019-04-30T10:27:02.561Z,34.83
2019-04-30T10:29:32.379Z,35.97
2019-04-30T10:32:02.262Z,36.87
2019-04-30T10:34:32.047Z,34.93
2019-04-30T10:37:02.893Z,36.63
2019-04-30T10:39:32.917Z,38.40
2019-04-30T10:42:03.153Z,32.70
2019-04-30T10:44:33.034Z,35.33
2019-04-30T10:47:02.836Z,34.40
2019-04-30T10:49:32.811Z,34.47
2019-04-30T10:52:02.705Z,37.70
2019-04-30T10:54:32.571Z,36.70
2019-04-30T10:57:04.470Z,36.93
2019-04-30T10:59:34.455Z,36.73
2019-04-30T11:02:04.700Z,36.77
2019-04-30T11:04:34.499Z,35.30
2019-04-30T11:07:05.276Z,36.60
2019-04-30T11:09:35.802Z,38.13
2019-04-30T11:12:06.515Z,35.47
2019-04-30T11:14:36.407Z,32.87
2019-04-30T11:17:06.780Z,33.97
2019-04-30T11:19:39.096Z,33.00
2019-04-30T11:22:09.362Z,33.33
2019-04-30T11:24:53.801Z,33.73
2019-04-30T11:27:11.693Z,34.53
2019-04-30T11:29:45.635Z,35.27
2019-04-30T11:32:17.851Z,35.90
2019-04-30T11:34:47.835Z,39.33
2019-04-30T11:37:18.127Z,34.23
2019-04-30T11:39:48.184Z,33.80
2019-04-30T11:42:18.217Z,31.67
2019-04-30T11:44:48.804Z,30.90
2019-04-30T11:47:24.133Z,36.00
2019-04-30T11:49:54.564Z,32.10
2019-04-30T11:52:24.489Z,31.43
2019-04-30T11:54:54.788Z,36.27
2019-04-30T11:57:24.914Z,31.17
2019-04-30T11:59:54.701Z,30.20
2019-04-30T12:02:26.431Z,34.90
2019-04-30T12:04:56.285Z,78.70
2019-04-30T12:07:27.809Z,33.07
2019-04-30T12:10:05.181Z,30.10
2019-04-30T12:12:38.657Z,28.40
2019-04-30T12:15:09.351Z,29.63
2019-04-30T12:17:39.424Z,27.77
2019-04-30T12:20:09.761Z,33.43
2019-04-30T12:22:39.781Z,27.97
2019-04-30T12:25:10.131Z,26.17
2019-04-30T12:27:40.066Z,24.23
2019-04-30T12:30:10.565Z,21.57
2019-04-30T12:32:40.522Z,23.10
2019-04-30T12:35:11.482Z,20.03
2019-04-30T12:37:41.279Z,19.30
2019-04-30T12:40:25.834Z,17.67
2019-04-30T12:42:42.777Z,18.13
2019-04-30T12:45:12.750Z,19.73
2019-04-30T12:47:44.169Z,17.20
2019-04-30T12:50:32.687Z,18.13
2019-04-30T12:53:04.123Z,16.40
2019-04-30T12:55:44.698Z,16.63
2019-04-30T12:58:17.122Z,21.57
2019-04-30T13:00:49.112Z,22.60
2019-04-30T13:03:20.469Z,17.90
2019-04-30T13:05:56.107Z,16.60
2019-04-30T13:08:27.670Z,16.87
2019-04-30T13:11:00.300Z,17.57
2019-04-30T13:13:31.997Z,19.60
2019-04-30T13:16:01.661Z,16.77
2019-04-30T13:18:31.465Z,18.63
2019-04-30T13:21:01.469Z,15.87
2019-04-30T13:23:31.333Z,17.07
2019-04-30T13:26:03.008Z,16.33
2019-04-30T13:28:51.334Z,17.40
2019-04-30T13:31:22.466Z,17.40
2019-04-30T13:34:09.020Z,23.00
2019-04-30T13:36:40.708Z,17.87
2019-04-30T13:39:16.697Z,15.73
2019-04-30T13:42:14.575Z,15.27
2019-04-30T13:44:39.411Z,18.43
2019-04-30T13:47:10.914Z,16.90
2019-04-30T13:49:41.925Z,15.17
2019-04-30T13:52:11.638Z,16.03
2019-04-30T13:54:41.364Z,18.50
2019-04-30T13:57:11.086Z,15.67
2019-04-30T13:59:40.958Z,18.07
2019-04-30T14:02:10.973Z,17.60
2019-04-30T14:04:42.494Z,16.93
2019-04-30T14:07:25.913Z,18.30
2019-04-30T14:09:55.781Z,17.20
2019-04-30T14:12:25.566Z,17.90
2019-04-30T14:14:55.292Z,14.57
2019-04-30T14:17:25.330Z,20.23
2019-04-30T14:19:55.087Z,17.30
2019-04-30T14:22:24.944Z,17.23
2019-04-30T14:24:54.695Z,17.37
2019-04-30T14:27:26.709Z,16.90
2019-04-30T14:29:56.995Z,17.87
2019-04-30T14:32:28.803Z,16.23
2019-04-30T14:35:01.542Z,18.37
2019-04-30T14:37:38.877Z,16.47
2019-04-30T14:40:22.643Z,18.47
2019-04-30T14:43:04.038Z,17.53
2019-04-30T14:45:44.831Z,19.60
2019-04-30T14:48:30.608Z,18.00
2019-04-30T14:51:01.232Z,17.93
2019-04-30T14:53:35.298Z,19.43
2019-04-30T14:56:23.582Z,19.23
2019-04-30T14:59:13.496Z,19.87
2019-04-30T15:01:51.563Z,17.10
2019-04-30T15:04:21.637Z,20.13
2019-04-30T15:06:51.468Z,21.57
2019-04-30T15:09:21.826Z,18.30
2019-04-30T15:11:51.685Z,19.83
2019-04-30T15:14:21.499Z,18.33
2019-04-30T15:16:51.217Z,20.27
2019-04-30T15:19:21.095Z,18.97
2019-04-30T15:21:50.951Z,21.53
2019-04-30T15:24:30.420Z,21.13
2019-04-30T15:27:00.289Z,20.67
2019-04-30T15:29:30.124Z,20.90
2019-04-30T15:32:00.352Z,19.47
2019-04-30T15:34:30.160Z,20.00
2019-04-30T15:36:59.958Z,22.60
2019-04-30T15:39:39.333Z,20.53
2019-04-30T15:42:16.039Z,23.87
2019-04-30T15:44:46.560Z,23.50
2019-04-30T15:47:18.963Z,25.20
2019-04-30T15:49:48.878Z,27.87
2019-04-30T15:52:19.069Z,24.40
2019-04-30T15:54:49.244Z,27.40
2019-04-30T15:57:19.069Z,27.93
2019-04-30T15:59:48.920Z,25.87
2019-04-30T16:02:20.583Z,26.03
2019-04-30T16:04:59.794Z,25.80
2019-04-30T16:07:29.591Z,26.17
2019-04-30T16:10:01.029Z,23.27
2019-04-30T16:12:42.248Z,26.17
2019-04-30T16:15:13.833Z,25.83
2019-04-30T16:17:45.221Z,26.13
2019-04-30T16:20:15.267Z,26.90
2019-04-30T16:22:45.151Z,24.40
2019-04-30T16:25:15.036Z,26.07
2019-04-30T16:27:44.852Z,28.77
2019-04-30T16:30:15.302Z,28.77
2019-04-30T16:32:45.156Z,25.47
2019-04-30T16:35:14.999Z,23.63
2019-04-30T16:37:44.873Z,23.93
2019-04-30T16:40:14.854Z,22.93
2019-04-30T16:42:44.703Z,23.90
2019-04-30T16:45:14.785Z,21.73
2019-04-30T16:47:44.543Z,22.40
2019-04-30T16:50:14.639Z,23.80
2019-04-30T16:52:44.416Z,20.53
2019-04-30T16:55:14.277Z,23.47
2019-04-30T16:57:44.146Z,22.00
2019-04-30T17:00:15.737Z,21.27
2019-04-30T17:02:47.143Z,20.77
2019-04-30T17:05:19.844Z,21.47
2019-04-30T17:07:54.326Z,24.33
2019-04-30T17:10:41.883Z,22.57
2019-04-30T17:13:15.954Z,23.17
2019-04-30T17:15:47.494Z,22.57
2019-04-30T17:18:19.070Z,22.87
2019-04-30T17:20:49.304Z,22.77
2019-04-30T17:23:19.425Z,22.70
2019-04-30T17:25:49.310Z,21.07
2019-04-30T17:28:19.138Z,21.63
2019-04-30T17:30:49.248Z,22.47
2019-04-30T17:33:19.047Z,22.10
2019-04-30T17:35:49.852Z,22.23
2019-04-30T17:38:19.865Z,22.23
2019-04-30T17:40:49.949Z,23.27
2019-04-30T17:43:19.838Z,20.63
2019-04-30T17:45:50.373Z,21.00
2019-04-30T17:48:20.307Z,22.43
2019-04-30T17:50:51.109Z,21.07
2019-04-30T17:53:20.965Z,22.57
2019-04-30T17:55:50.772Z,22.33
2019-04-30T17:58:20.778Z,25.07
2019-04-30T18:00:52.240Z,24.07
2019-04-30T18:03:22.148Z,23.70
2019-04-30T18:05:51.919Z,22.63
2019-04-30T18:08:24.060Z,23.40
2019-04-30T18:10:54.724Z,22.03
2019-04-30T18:13:27.056Z,26.33
2019-04-30T18:16:00.219Z,23.70
2019-04-30T18:18:30.432Z,24.73
2019-04-30T18:21:01.936Z,23.90
2019-04-30T18:23:33.584Z,24.93
2019-04-30T18:26:14.528Z,24.17
2019-04-30T18:28:47.385Z,21.83
2019-04-30T18:31:18.704Z,22.93
2019-04-30T18:33:49.537Z,22.80
2019-04-30T18:36:20.172Z,23.53
2019-04-30T18:38:50.315Z,22.50
2019-04-30T18:41:20.247Z,20.93
2019-04-30T18:43:50.108Z,22.17
2019-04-30T18:46:19.980Z,21.47
2019-04-30T18:48:52.542Z,23.07
2019-04-30T18:51:33.816Z,25.13
2019-04-30T18:53:52.716Z,23.23
2019-04-30T18:56:22.595Z,22.23
2019-04-30T18:58:52.361Z,25.00
2019-04-30T19:01:22.241Z,25.60
2019-04-30T19:03:52.057Z,23.67
2019-04-30T19:06:26.284Z,22.50
2019-04-30T19:09:09.632Z,22.70
2019-04-30T19:11:41.114Z,24.37
2019-04-30T19:14:15.580Z,20.77
2019-04-30T19:16:46.992Z,22.67
2019-04-30T19:19:35.287Z,22.03
2019-04-30T19:22:05.411Z,22.13
2019-04-30T19:24:36.463Z,22.80
2019-04-30T19:27:08.587Z,22.70
2019-04-30T19:29:38.288Z,25.13
2019-04-30T19:32:09.426Z,23.33
2019-04-30T19:34:42.808Z,21.47
2019-04-30T19:37:16.120Z,22.87
2019-04-30T19:39:51.123Z,21.23
2019-04-30T19:42:23.351Z,21.67
2019-04-30T19:44:59.772Z,20.67
2019-04-30T19:47:26.253Z,18.53
2019-04-30T19:50:00.321Z,18.03
2019-04-30T19:52:34.439Z,18.87
2019-04-30T19:55:09.296Z,15.93
2019-04-30T19:57:39.921Z,18.23
2019-04-30T20:00:14.017Z,18.27
2019-04-30T20:02:48.690Z,18.23
2019-04-30T20:05:24.544Z,17.17
2019-04-30T20:07:59.097Z,19.43
2019-04-30T20:10:28.833Z,16.43
2019-04-30T20:12:58.834Z,18.03
2019-04-30T20:15:29.807Z,19.33
2019-04-30T20:18:01.009Z,18.57
2019-04-30T20:20:35.017Z,18.30
2019-04-30T20:23:05.131Z,19.07
2019-04-30T20:25:34.949Z,18.90
2019-04-30T20:28:04.871Z,19.30
2019-04-30T20:30:39.904Z,19.70
2019-04-30T20:33:10.038Z,17.40
2019-04-30T20:35:41.148Z,20.40
2019-04-30T20:38:26.897Z,18.30
2019-04-30T20:41:02.310Z,21.70
2019-04-30T20:43:28.717Z,18.03
2019-04-30T20:46:00.713Z,21.30
2019-04-30T20:48:30.083Z,19.77
2019-04-30T20:51:01.402Z,21.77
2019-04-30T20:53:31.475Z,22.57
2019-04-30T20:56:01.201Z,27.77
2019-04-30T20:58:30.959Z,29.53
2019-04-30T21:01:06.210Z,27.20
2019-04-30T21:03:32.308Z,27.97
2019-04-30T21:06:02.096Z,28.87
2019-04-30T21:08:31.907Z,30.00
2019-04-30T21:11:01.618Z,27.07
2019-04-30T21:13:31.428Z,29.33
2019-04-30T21:16:01.290Z,32.13
2019-04-30T21:18:32.554Z,28.43
2019-04-30T21:21:02.496Z,34.30
2019-04-30T21:23:32.205Z,30.77
2019-04-30T21:26:02.015Z,31.57
2019-04-30T21:28:31.830Z,30.33
2019-04-30T21:31:03.364Z,34.57
2019-04-30T21:33:34.837Z,33.43
2019-04-30T21:36:06.414Z,33.93
2019-04-30T21:38:38.953Z,39.53
2019-04-30T21:41:09.986Z,39.67
2019-04-30T21:43:39.908Z,41.60
2019-04-30T21:46:09.656Z,41.23
2019-04-30T21:48:39.348Z,44.00
2019-04-30T21:51:10.566Z,47.63
2019-04-30T21:53:40.257Z,44.53
2019-04-30T21:56:10.002Z,39.97
2019-04-30T21:58:39.736Z,44.03
2019-04-30T22:01:14.321Z,47.90
2019-04-30T22:03:45.494Z,47.70
2019-04-30T22:06:15.527Z,50.17
2019-04-30T22:08:45.393Z,50.27
2019-04-30T22:11:15.406Z,52.40
2019-04-30T22:13:45.113Z,51.27
2019-04-30T22:16:14.912Z,51.43
2019-04-30T22:18:44.658Z,49.70
2019-04-30T22:21:14.493Z,53.33
2019-04-30T22:23:44.192Z,47.27
2019-04-30T22:26:14.007Z,50.17
2019-04-30T22:28:43.817Z,56.37
2019-04-30T22:31:13.579Z,54.70
2019-04-30T22:33:43.380Z,51.73
2019-04-30T22:36:28.833Z,50.60
2019-04-30T22:39:00.061Z,52.07
2019-04-30T22:41:31.645Z,52.10
2019-04-30T22:44:01.471Z,53.53
2019-04-30T22:46:31.235Z,57.30
2019-04-30T22:49:01.148Z,56.10
2019-04-30T22:51:30.855Z,50.63
2019-04-30T22:54:00.623Z,58.50
2019-04-30T22:56:30.343Z,55.57
2019-04-30T22:59:00.089Z,56.03
2019-04-30T23:01:49.946Z,52.43
2019-04-30T23:04:21.451Z,59.93
2019-04-30T23:06:51.389Z,61.43
2019-04-30T23:09:22.140Z,61.23
2019-04-30T23:11:51.934Z,57.13
2019-04-30T23:14:21.787Z,63.00
2019-04-30T23:16:51.651Z,63.37
2019-04-30T23:19:21.412Z,57.13
2019-04-30T23:21:51.205Z,59.87
2019-04-30T23:24:21.092Z,55.27
2019-04-30T23:26:50.823Z,61.40
2019-04-30T23:29:20.528Z,69.93
2019-04-30T23:31:50.872Z,60.87
2019-04-30T23:34:20.664Z,55.60
2019-04-30T23:36:50.367Z,58.33
2019-04-30T23:39:20.233Z,59.73
2019-04-30T23:41:50.028Z,62.30
2019-04-30T23:44:19.778Z,63.20
2019-04-30T23:46:49.486Z,60.40
2019-04-30T23:49:19.213Z,63.17
2019-04-30T23:51:50.522Z,57.53
2019-04-30T23:54:20.755Z,59.53
2019-04-30T23:56:50.544Z,58.07
2019-04-30T23:59:20.375Z,59.17
